KGEG/GEG METAR and TAF weather

Enter ICAO airport designator
Station Type Date Time Source
KGEG METAR 2021/07/26 13:53 UTC NOAA

KGEG 261353Z 17008KT 10SM FEW015 FEW250 19/03 A2995 RMK AO2 SLP121 FU FEW015 FU PLUME DSNT NE T01940033


Station Type Date Time Source
KGEG Decoded METAR 2021/07/26 13:53 UTC NOAA

SPOKANE INTERNATIONAL AIRPORT , WA, United States (KGEG) 47-37N 117-32W 735M
Jul 26, 2021 - 09:53 AM EDT / 2021.07.26 1353 UTC
Wind: from the S (170 degrees) at 9 MPH (8 KT):0
Visibility: 10 mile(s):0
Sky conditions: mostly clear
Temperature: 66.9 F (19.4 C)
Dew Point: 37.9 F (3.3 C)
Relative Humidity: 34%
Pressure (altimeter): 29.95 in. Hg (1014 hPa)
ob: KGEG 261353Z 17008KT 10SM FEW015 FEW250 19/03 A2995 RMK AO2 SLP121 FU FEW015 FU PLUME DSNT NE T01940033
cycle: 14

Station Type Date Time Source
KGEG TAF 2021/07/26 12:27 UTC NOAA

TAF KGEG 261125Z 2612/2712 15005KT P6SM FEW050
FM261800 22008KT P6SM FEW250
FM270300 20006KT P6SM SCT150 SCT250

Example: see airport list